createdAt,value
2022-11-06T00:02:08.306Z,101562.22
2022-11-06T00:04:34.968Z,101563.09
2022-11-06T00:07:01.904Z,101556.91
2022-11-06T00:09:28.569Z,101554.25
2022-11-06T00:11:55.361Z,101556.91
2022-11-06T00:14:21.992Z,101545.47
2022-11-06T00:16:48.781Z,101556.06
2022-11-06T00:19:15.759Z,101556.06
2022-11-06T00:21:45.641Z,101554.31
2022-11-06T00:24:13.879Z,101556.06
2022-11-06T00:26:40.798Z,101546.38
2022-11-06T00:29:13.596Z,101541.94
2022-11-06T00:31:40.233Z,101553.41
2022-11-06T00:34:07.833Z,101559.63
2022-11-06T00:36:34.673Z,101558.75
2022-11-06T00:39:01.495Z,101555.22
2022-11-06T00:41:28.645Z,101557.00
2022-11-06T00:43:58.434Z,101556.09
2022-11-06T00:46:25.533Z,101551.72
2022-11-06T00:48:53.196Z,101553.44
2022-11-06T00:51:22.758Z,101554.34
2022-11-06T00:53:54.176Z,101557.00
2022-11-06T00:56:21.108Z,101556.09
2022-11-06T00:58:48.357Z,101548.16
2022-11-06T01:01:23.745Z,101549.94
2022-11-06T01:03:55.763Z,101549.03
2022-11-06T01:06:26.490Z,101550.81
2022-11-06T01:08:53.524Z,101556.09
2022-11-06T01:11:59.496Z,101549.91
2022-11-06T01:14:23.975Z,101553.41
2022-11-06T01:16:50.717Z,101548.16
2022-11-06T01:19:18.967Z,101539.31
2022-11-06T01:21:47.167Z,101543.72
2022-11-06T01:24:16.671Z,101538.44
2022-11-06T01:27:04.915Z,101535.78
2022-11-06T01:29:30.364Z,101542.84
2022-11-06T01:31:56.987Z,101534.91
2022-11-06T01:34:23.701Z,101536.66
2022-11-06T01:36:50.361Z,101532.25
2022-11-06T01:39:17.243Z,101525.19
2022-11-06T01:41:46.685Z,101518.13
2022-11-06T01:44:41.290Z,101516.38
2022-11-06T01:47:28.838Z,101511.94
2022-11-06T01:49:58.852Z,101505.78
2022-11-06T01:52:27.162Z,101504.03
2022-11-06T01:54:57.779Z,101502.25
2022-11-06T01:57:24.679Z,101496.06
2022-11-06T01:59:52.487Z,101488.09
2022-11-06T02:02:19.464Z,101489.88
2022-11-06T02:04:48.497Z,101486.38
2022-11-06T02:07:16.256Z,101493.41
2022-11-06T02:09:43.047Z,101488.13
2022-11-06T02:12:12.691Z,101493.44
2022-11-06T02:15:13.496Z,101480.16
2022-11-06T02:18:02.572Z,101489.00
2022-11-06T02:20:41.440Z,101485.50
2022-11-06T02:23:32.975Z,101476.63
2022-11-06T02:26:05.667Z,101477.50
2022-11-06T02:28:40.075Z,101479.28
2022-11-06T02:31:12.299Z,101474.00
2022-11-06T02:33:44.914Z,101481.94
2022-11-06T02:36:17.551Z,101479.25
2022-11-06T02:38:48.117Z,101481.03
2022-11-06T02:41:20.819Z,101474.81
2022-11-06T02:43:50.377Z,101473.09
2022-11-06T02:46:41.195Z,101483.66
2022-11-06T02:49:15.331Z,101484.53
2022-11-06T02:51:46.727Z,101481.03
2022-11-06T02:54:14.541Z,101472.16
2022-11-06T02:56:43.292Z,101469.53
2022-11-06T02:59:14.489Z,101467.75
2022-11-06T03:01:50.283Z,101471.25
2022-11-06T03:04:38.179Z,101476.56
2022-11-06T03:07:38.542Z,101475.69
2022-11-06T03:10:06.756Z,101474.81
2022-11-06T03:12:39.399Z,101473.03
2022-11-06T03:15:18.210Z,101473.91
2022-11-06T03:17:50.365Z,101478.34
2022-11-06T03:20:27.331Z,101479.25
2022-11-06T03:22:58.308Z,101472.19
2022-11-06T03:25:45.076Z,101471.31
2022-11-06T03:28:18.725Z,101477.56
2022-11-06T03:30:51.002Z,101466.97
2022-11-06T03:33:23.610Z,101473.13
2022-11-06T03:35:58.323Z,101467.84
2022-11-06T03:38:28.242Z,101466.13
2022-11-06T03:41:08.742Z,101461.69
2022-11-06T03:43:36.575Z,101455.53
2022-11-06T03:46:06.738Z,101459.03
2022-11-06T03:48:48.044Z,101456.38
2022-11-06T03:51:18.542Z,101456.38
2022-11-06T03:53:51.664Z,101456.34
2022-11-06T03:57:11.985Z,101446.78
2022-11-06T03:59:43.767Z,101455.56
2022-11-06T04:02:13.235Z,101454.66
2022-11-06T04:05:15.379Z,101457.28
2022-11-06T04:08:05.773Z,101451.13
2022-11-06T04:10:51.624Z,101451.25
2022-11-06T04:13:39.906Z,101449.47
2022-11-06T04:16:08.469Z,101445.84
2022-11-06T04:18:35.167Z,101444.94
2022-11-06T04:21:23.065Z,101444.94
2022-11-06T04:24:35.263Z,101438.78
2022-11-06T04:27:11.722Z,101434.38
2022-11-06T04:30:05.038Z,101437.00
2022-11-06T04:32:53.425Z,101437.00
2022-11-06T04:35:34.488Z,101438.78
2022-11-06T04:38:07.156Z,101440.50
2022-11-06T04:40:56.584Z,101442.25
2022-11-06T04:43:38.853Z,101444.03
2022-11-06T04:46:06.937Z,101443.16
2022-11-06T04:48:33.811Z,101442.31
2022-11-06T04:51:03.695Z,101439.69
2022-11-06T04:53:31.286Z,101444.06
2022-11-06T04:56:02.540Z,101430.94
2022-11-06T04:58:29.208Z,101427.38
2022-11-06T05:00:55.972Z,101426.44
2022-11-06T05:03:22.674Z,101424.69
2022-11-06T05:05:49.465Z,101422.88
2022-11-06T05:08:18.794Z,101423.81
2022-11-06T05:10:45.689Z,101415.84
2022-11-06T05:13:12.923Z,101418.47
2022-11-06T05:15:39.596Z,101414.03
2022-11-06T05:18:06.520Z,101418.41
2022-11-06T05:20:33.656Z,101417.50
2022-11-06T05:23:00.990Z,101415.81
2022-11-06T05:25:29.548Z,101419.47
2022-11-06T05:27:56.676Z,101413.22
2022-11-06T05:30:24.454Z,101415.09
2022-11-06T05:32:51.328Z,101412.44
2022-11-06T05:35:19.660Z,101415.88
2022-11-06T05:37:46.986Z,101418.50
2022-11-06T05:40:14.114Z,101419.34
2022-11-06T05:42:41.555Z,101425.50
2022-11-06T05:45:09.095Z,101419.31
2022-11-06T05:47:35.790Z,101427.31
2022-11-06T05:50:02.485Z,101422.00
2022-11-06T05:52:29.187Z,101422.88
2022-11-06T05:54:55.847Z,101420.22
2022-11-06T05:57:22.562Z,101419.34
2022-11-06T05:59:49.275Z,101422.88
2022-11-06T06:02:16.017Z,101417.59
2022-11-06T06:04:42.722Z,101417.63
2022-11-06T06:07:09.519Z,101415.84
2022-11-06T06:09:36.275Z,101415.84
2022-11-06T06:12:02.993Z,101413.19
2022-11-06T06:14:29.648Z,101410.59
2022-11-06T06:16:56.297Z,101416.75
2022-11-06T06:19:23.024Z,101424.69
2022-11-06T06:21:49.858Z,101414.16
2022-11-06T06:24:16.609Z,101420.28
2022-11-06T06:26:43.688Z,101417.59
2022-11-06T06:29:10.380Z,101432.59
2022-11-06T06:31:37.158Z,101437.09
2022-11-06T06:34:03.827Z,101432.66
2022-11-06T06:36:30.664Z,101434.53
2022-11-06T06:38:57.468Z,101437.25
2022-11-06T06:41:24.275Z,101439.97
2022-11-06T06:43:51.135Z,101435.50
2022-11-06T06:46:17.846Z,101429.28
2022-11-06T06:48:44.473Z,101433.66
2022-11-06T06:51:11.178Z,101434.50
2022-11-06T06:53:37.928Z,101431.88
2022-11-06T06:56:04.890Z,101436.38
2022-11-06T06:58:31.922Z,101445.16
2022-11-06T07:01:02.688Z,101446.06
2022-11-06T07:03:29.428Z,101440.78
2022-11-06T07:05:58.313Z,101442.50
2022-11-06T07:08:26.604Z,101438.19
2022-11-06T07:10:53.302Z,101437.31
2022-11-06T07:13:19.951Z,101448.66
2022-11-06T07:15:46.663Z,101445.09
2022-11-06T07:18:13.535Z,101445.91
2022-11-06T07:20:40.399Z,101445.13
2022-11-06T07:23:07.914Z,101444.09
2022-11-06T07:25:34.758Z,101445.81
2022-11-06T07:28:03.144Z,101439.75
2022-11-06T07:30:30.628Z,101436.28
2022-11-06T07:33:00.626Z,101445.97
2022-11-06T07:35:28.018Z,101442.31
2022-11-06T07:37:54.726Z,101441.41
2022-11-06T07:40:21.403Z,101440.63
2022-11-06T07:42:48.084Z,101424.81
2022-11-06T07:45:16.220Z,101440.59
2022-11-06T07:47:42.886Z,101437.03
2022-11-06T07:50:09.594Z,101432.53
2022-11-06T07:52:36.226Z,101436.94
2022-11-06T07:55:03.043Z,101433.44
2022-11-06T07:57:29.764Z,101434.31
2022-11-06T07:59:56.681Z,101421.97
2022-11-06T08:02:23.549Z,101416.59
2022-11-06T08:04:50.304Z,101430.50
2022-11-06T08:07:17.009Z,101424.22
2022-11-06T08:09:43.687Z,101431.38
2022-11-06T08:12:10.492Z,101427.84
2022-11-06T08:14:41.216Z,101415.31
2022-11-06T08:17:09.670Z,101411.53
2022-11-06T08:19:39.337Z,101409.47
2022-11-06T08:22:06.024Z,101411.97
2022-11-06T08:24:32.723Z,101408.81
2022-11-06T08:26:59.746Z,101416.22
2022-11-06T08:29:26.493Z,101416.72
2022-11-06T08:31:53.323Z,101416.69
2022-11-06T08:34:21.462Z,101415.69
2022-11-06T08:36:52.176Z,101404.44
2022-11-06T08:39:18.849Z,101399.84
2022-11-06T08:41:45.751Z,101395.13
2022-11-06T08:44:12.640Z,101393.09
2022-11-06T08:46:39.510Z,101384.50
2022-11-06T08:49:06.336Z,101394.31
2022-11-06T08:51:34.232Z,101380.72
2022-11-06T08:54:01.157Z,101379.13
2022-11-06T08:56:27.970Z,101387.50
2022-11-06T08:58:55.878Z,101387.22
2022-11-06T09:01:24.352Z,101393.75
2022-11-06T09:03:51.208Z,101390.66
2022-11-06T09:06:18.159Z,101385.63
2022-11-06T09:08:45.034Z,101382.19
2022-11-06T09:11:12.211Z,101380.41
2022-11-06T09:13:38.887Z,101375.22
2022-11-06T09:16:10.030Z,101375.78
2022-11-06T09:18:39.734Z,101378.63
2022-11-06T09:21:06.785Z,101379.47
2022-11-06T09:23:33.562Z,101385.16
2022-11-06T09:26:00.334Z,101371.03
2022-11-06T09:28:26.992Z,101384.03
2022-11-06T09:30:55.472Z,101389.63
2022-11-06T09:33:22.534Z,101393.22
2022-11-06T09:35:49.448Z,101391.06
2022-11-06T09:38:16.184Z,101383.41
2022-11-06T09:40:48.910Z,101375.56
2022-11-06T09:44:02.932Z,101373.38
2022-11-06T09:46:32.631Z,101386.75
2022-11-06T09:49:03.848Z,101383.53
2022-11-06T09:51:37.819Z,101380.50
2022-11-06T09:54:12.593Z,101382.31
2022-11-06T09:56:41.814Z,101379.34
2022-11-06T09:59:12.795Z,101375.03
2022-11-06T10:01:46.172Z,101372.56
2022-11-06T10:04:22.163Z,101363.88
2022-11-06T10:06:48.895Z,101365.69
2022-11-06T10:09:17.729Z,101359.66
2022-11-06T10:12:02.169Z,101355.78
2022-11-06T10:15:08.745Z,101360.53
2022-11-06T10:17:35.524Z,101355.34
2022-11-06T10:20:13.331Z,101356.47
2022-11-06T10:22:41.579Z,101349.41
2022-11-06T10:25:25.139Z,101347.88
2022-11-06T10:28:01.872Z,101342.19
2022-11-06T10:30:39.041Z,101341.63
2022-11-06T10:33:20.659Z,101336.97
2022-11-06T10:35:54.271Z,101337.81
2022-11-06T10:38:41.470Z,101336.03
2022-11-06T10:41:16.599Z,101323.44
2022-11-06T10:43:49.389Z,101326.28
2022-11-06T10:46:41.243Z,101326.22
2022-11-06T10:49:39.843Z,101320.53
2022-11-06T10:52:25.199Z,101316.25
2022-11-06T10:55:01.279Z,101312.38
2022-11-06T10:57:33.912Z,101292.22
2022-11-06T11:00:00.927Z,101302.03
2022-11-06T11:02:34.051Z,101285.28
2022-11-06T11:05:00.961Z,101288.84
2022-11-06T11:07:32.540Z,101292.19
2022-11-06T11:10:23.414Z,101291.22
2022-11-06T11:12:51.342Z,101284.19
2022-11-06T11:15:19.797Z,101288.50
2022-11-06T11:18:13.434Z,101289.50
2022-11-06T11:20:43.720Z,101288.47
2022-11-06T11:23:15.448Z,101276.88
2022-11-06T11:25:47.683Z,101277.69
2022-11-06T11:28:23.200Z,101278.00
2022-11-06T11:30:55.286Z,101277.63
2022-11-06T11:33:24.705Z,101275.31
2022-11-06T11:35:53.766Z,101272.13
2022-11-06T11:38:22.451Z,101272.03
2022-11-06T11:40:49.663Z,101265.63
2022-11-06T11:43:30.268Z,101268.94
2022-11-06T11:46:06.123Z,101263.09
2022-11-06T11:48:45.201Z,101259.75
2022-11-06T11:51:37.162Z,101264.56
2022-11-06T11:54:13.119Z,101256.81
2022-11-06T11:57:08.037Z,101257.81
2022-11-06T11:59:46.443Z,101240.69
2022-11-06T12:02:25.339Z,101236.22
2022-11-06T12:04:59.876Z,101231.25
2022-11-06T12:07:29.609Z,101230.41
2022-11-06T12:09:57.823Z,101218.53
2022-11-06T12:12:31.365Z,101211.81
2022-11-06T12:15:19.368Z,101216.75
2022-11-06T12:18:07.317Z,101222.41
2022-11-06T12:21:01.875Z,101221.97
2022-11-06T12:23:34.888Z,101216.53
2022-11-06T12:26:09.765Z,101209.19
2022-11-06T12:28:38.438Z,101207.84
2022-11-06T12:31:20.296Z,101205.94
2022-11-06T12:34:06.567Z,101205.78
2022-11-06T12:36:39.539Z,101199.63
2022-11-06T12:39:16.876Z,101202.22
2022-11-06T12:41:47.238Z,101202.34
2022-11-06T12:44:15.133Z,101200.28
2022-11-06T12:46:50.935Z,101191.41
2022-11-06T12:49:55.643Z,101189.34
2022-11-06T12:52:25.432Z,101188.41
2022-11-06T12:55:01.402Z,101189.34
2022-11-06T12:57:46.666Z,101196.03
2022-11-06T13:00:18.551Z,101192.44
2022-11-06T13:03:30.302Z,101182.00
2022-11-06T13:06:30.968Z,101172.09
2022-11-06T13:09:02.818Z,101174.56
2022-11-06T13:11:45.506Z,101176.59
2022-11-06T13:14:24.873Z,101173.06
2022-11-06T13:17:05.804Z,101174.03
2022-11-06T13:20:11.149Z,101162.97
2022-11-06T13:22:56.657Z,101158.22
2022-11-06T13:25:36.647Z,101151.50
2022-11-06T13:28:26.995Z,101147.88
2022-11-06T13:30:54.611Z,101146.63
2022-11-06T13:33:30.539Z,101150.63
2022-11-06T13:35:59.154Z,101138.84
2022-11-06T13:38:35.672Z,101135.16
2022-11-06T13:41:07.151Z,101129.72
2022-11-06T13:43:38.634Z,101123.06
2022-11-06T13:46:26.827Z,101133.22
2022-11-06T13:49:09.401Z,101128.00
2022-11-06T13:51:51.675Z,101124.66
2022-11-06T13:54:21.083Z,101125.81
2022-11-06T13:57:21.865Z,101135.13
2022-11-06T13:59:51.812Z,101131.63
2022-11-06T14:02:49.214Z,101132.47
2022-11-06T14:05:40.978Z,101122.16
2022-11-06T14:08:25.223Z,101118.03
2022-11-06T14:10:56.590Z,101113.31
2022-11-06T14:13:34.961Z,101116.81
2022-11-06T14:16:21.568Z,101113.41
2022-11-06T14:19:14.911Z,101104.22
2022-11-06T14:21:50.095Z,101105.72
2022-11-06T14:24:19.909Z,101110.84
2022-11-06T14:26:48.993Z,101100.03
2022-11-06T14:29:30.783Z,101092.25
2022-11-06T14:32:00.479Z,101100.78
2022-11-06T14:34:29.732Z,101092.25
2022-11-06T14:36:56.605Z,101085.34
2022-11-06T14:39:53.057Z,101085.94
2022-11-06T14:42:30.602Z,101083.28
2022-11-06T14:44:59.743Z,101073.06
2022-11-06T14:47:56.920Z,101067.47
2022-11-06T14:50:37.542Z,101056.97
2022-11-06T14:53:25.998Z,101055.22
2022-11-06T14:56:01.313Z,101045.06
2022-11-06T14:58:36.848Z,101055.44
2022-11-06T15:01:09.805Z,101054.97
2022-11-06T15:03:56.714Z,101061.81
2022-11-06T15:06:32.557Z,101058.81
2022-11-06T15:09:12.900Z,101058.13
2022-11-06T15:11:47.427Z,101047.00
2022-11-06T15:14:14.871Z,101060.06
2022-11-06T15:16:50.837Z,101062.81
2022-11-06T15:19:23.770Z,101058.50
2022-11-06T15:22:14.992Z,101060.06
2022-11-06T15:24:49.601Z,101052.91
2022-11-06T15:27:19.030Z,101064.63
2022-11-06T15:29:49.712Z,101056.69
2022-11-06T15:32:19.676Z,101057.09
2022-11-06T15:35:07.853Z,101062.06
2022-11-06T15:37:50.846Z,101062.53
2022-11-06T15:40:23.253Z,101056.19
2022-11-06T15:42:50.102Z,101053.44
2022-11-06T15:45:16.857Z,101054.50
2022-11-06T15:48:20.792Z,101042.13
2022-11-06T15:50:47.721Z,101049.41
2022-11-06T15:53:15.421Z,101044.03
2022-11-06T15:56:07.952Z,101029.91
2022-11-06T15:58:37.543Z,101026.66
2022-11-06T16:01:06.448Z,101008.38
2022-11-06T16:03:44.813Z,101011.09
2022-11-06T16:06:11.666Z,101007.75
2022-11-06T16:08:39.227Z,101007.13
2022-11-06T16:11:13.101Z,101004.66
2022-11-06T16:13:40.385Z,101006.56
2022-11-06T16:16:31.647Z,100999.75
2022-11-06T16:18:58.407Z,100990.25
2022-11-06T16:21:28.376Z,100991.38
2022-11-06T16:24:02.319Z,100994.28
2022-11-06T16:26:32.977Z,100990.00
2022-11-06T16:29:00.723Z,100985.78
2022-11-06T16:31:30.351Z,100983.31
2022-11-06T16:34:04.003Z,100987.97
2022-11-06T16:36:50.112Z,100987.19
2022-11-06T16:39:16.939Z,100990.00
2022-11-06T16:42:20.508Z,100986.59
2022-11-06T16:44:51.719Z,100992.16
2022-11-06T16:47:20.208Z,100986.94
2022-11-06T16:49:53.496Z,100992.44
2022-11-06T16:52:25.814Z,100988.19
2022-11-06T16:54:56.251Z,100990.94
2022-11-06T16:57:26.132Z,100987.63
2022-11-06T17:00:02.348Z,100988.53
2022-11-06T17:02:32.664Z,100985.16
2022-11-06T17:05:17.937Z,100990.50
2022-11-06T17:07:45.753Z,100985.38
2022-11-06T17:10:34.199Z,100995.22
2022-11-06T17:13:22.135Z,100984.72
2022-11-06T17:16:00.286Z,100982.19
2022-11-06T17:18:32.160Z,100991.16
2022-11-06T17:21:06.925Z,100972.72
2022-11-06T17:23:34.218Z,100985.03
2022-11-06T17:26:13.522Z,100983.31
2022-11-06T17:28:40.597Z,100974.53
2022-11-06T17:31:16.949Z,100981.66
2022-11-06T17:33:46.301Z,100976.47
2022-11-06T17:36:27.330Z,100985.38
2022-11-06T17:38:55.424Z,100987.19
2022-11-06T17:41:32.696Z,100988.13
2022-11-06T17:44:03.775Z,100992.53
2022-11-06T17:46:33.559Z,100989.94
2022-11-06T17:49:02.468Z,100989.88
2022-11-06T17:51:48.382Z,100979.34
2022-11-06T17:54:15.709Z,100970.53
2022-11-06T17:56:44.039Z,100980.31
2022-11-06T17:59:12.166Z,100980.34
2022-11-06T18:01:39.056Z,100975.03
2022-11-06T18:04:07.231Z,100986.66
2022-11-06T18:06:33.982Z,100978.72
2022-11-06T18:09:01.970Z,100974.34
2022-11-06T18:11:29.125Z,100972.66
2022-11-06T18:13:55.934Z,100967.41
2022-11-06T18:16:28.197Z,100958.69
2022-11-06T18:18:55.929Z,100967.53
2022-11-06T18:21:24.078Z,100964.03
2022-11-06T18:23:50.862Z,100960.53
2022-11-06T18:26:18.589Z,100966.00
2022-11-06T18:28:45.255Z,100965.16
2022-11-06T18:31:11.920Z,100973.97
2022-11-06T18:33:38.689Z,100958.91
2022-11-06T18:36:07.586Z,100956.22
2022-11-06T18:38:34.902Z,100958.00
2022-11-06T18:41:09.529Z,100953.56
2022-11-06T18:43:36.339Z,100957.06
2022-11-06T18:46:11.113Z,100956.31
2022-11-06T18:48:38.239Z,100960.72
2022-11-06T18:51:09.614Z,100958.16
2022-11-06T18:53:37.574Z,100950.09
2022-11-06T18:56:04.614Z,100959.81
2022-11-06T18:58:31.528Z,100952.81
2022-11-06T19:01:05.022Z,100951.97
2022-11-06T19:03:33.170Z,100941.44
2022-11-06T19:06:00.281Z,100951.13
2022-11-06T19:08:27.444Z,100958.31
2022-11-06T19:10:54.276Z,100961.16
2022-11-06T19:13:24.066Z,100949.66
2022-11-06T19:15:50.987Z,100952.31
2022-11-06T19:18:17.938Z,100945.38
2022-11-06T19:20:45.901Z,100947.19
2022-11-06T19:23:14.518Z,100945.34
2022-11-06T19:25:42.014Z,100953.34
2022-11-06T19:28:09.650Z,100943.56
2022-11-06T19:30:36.799Z,100946.16
2022-11-06T19:33:03.770Z,100949.88
2022-11-06T19:35:32.057Z,100942.88
2022-11-06T19:38:00.822Z,100952.59
2022-11-06T19:40:31.979Z,100940.81
2022-11-06T19:43:00.952Z,100944.44
2022-11-06T19:45:28.329Z,100943.41
2022-11-06T19:47:55.056Z,100947.88
2022-11-06T19:50:39.227Z,100939.97
2022-11-06T19:53:08.543Z,100945.41
2022-11-06T19:55:39.138Z,100941.59
2022-11-06T19:58:05.854Z,100941.84
2022-11-06T20:00:32.659Z,100934.44
2022-11-06T20:02:59.445Z,100936.13
2022-11-06T20:05:26.198Z,100933.25
2022-11-06T20:07:52.902Z,100930.47
2022-11-06T20:10:20.657Z,100932.00
2022-11-06T20:12:47.690Z,100925.00
2022-11-06T20:15:18.763Z,100922.84
2022-11-06T20:17:51.975Z,100923.84
2022-11-06T20:23:14.717Z,100904.00
2022-11-06T20:25:45.300Z,100921.19
2022-11-06T20:28:12.290Z,100921.88
2022-11-06T20:31:01.516Z,100921.06
2022-11-06T20:33:37.917Z,100921.00
2022-11-06T20:36:36.048Z,100919.03
2022-11-06T20:39:19.018Z,100902.63
2022-11-06T20:42:00.580Z,100903.69
2022-11-06T20:45:09.008Z,100897.28
2022-11-06T20:47:36.747Z,100888.31
2022-11-06T20:50:03.760Z,100883.00
2022-11-06T20:52:31.702Z,100875.00
2022-11-06T20:55:00.032Z,100870.44
2022-11-06T20:57:26.939Z,100873.03
2022-11-06T20:59:53.739Z,100866.84
2022-11-06T21:02:20.572Z,100863.38
2022-11-06T21:04:47.450Z,100861.66
2022-11-06T21:07:14.381Z,100856.22
2022-11-06T21:09:41.154Z,100853.59
2022-11-06T21:12:11.579Z,100853.78
2022-11-06T21:14:38.223Z,100840.47
2022-11-06T21:17:05.142Z,100842.63
2022-11-06T21:19:33.261Z,100833.00
2022-11-06T21:22:00.013Z,100843.75
2022-11-06T21:24:27.074Z,100839.19
2022-11-06T21:26:55.991Z,100834.13
2022-11-06T21:29:23.905Z,100830.69
2022-11-06T21:31:51.272Z,100827.34
2022-11-06T21:34:20.089Z,100825.34
2022-11-06T21:36:47.364Z,100828.97
2022-11-06T21:39:17.700Z,100835.13
2022-11-06T21:41:44.923Z,100831.28
2022-11-06T21:44:17.254Z,100829.00
2022-11-06T21:46:45.591Z,100829.09
2022-11-06T21:49:13.926Z,100831.78
2022-11-06T21:51:40.822Z,100829.38
2022-11-06T21:54:26.137Z,100831.19
2022-11-06T21:56:54.643Z,100828.31
2022-11-06T21:59:25.287Z,100828.97
2022-11-06T22:01:52.284Z,100815.84
2022-11-06T22:04:19.097Z,100808.47
2022-11-06T22:06:45.755Z,100808.47
2022-11-06T22:09:14.163Z,100803.56
2022-11-06T22:11:42.884Z,100805.78
2022-11-06T22:14:16.691Z,100801.63
2022-11-06T22:16:45.902Z,100798.31
2022-11-06T22:19:13.680Z,100799.38
2022-11-06T22:21:40.775Z,100798.34
2022-11-06T22:24:07.950Z,100791.94
2022-11-06T22:26:35.593Z,100802.78
2022-11-06T22:29:06.223Z,100799.09
2022-11-06T22:31:33.272Z,100800.44
2022-11-06T22:34:00.308Z,100792.41
2022-11-06T22:36:27.233Z,100801.47
2022-11-06T22:38:54.059Z,100793.97
2022-11-06T22:41:23.644Z,100799.75
2022-11-06T22:43:50.689Z,100803.19
2022-11-06T22:46:20.118Z,100805.94
2022-11-06T22:48:47.312Z,100804.09
2022-11-06T22:51:16.292Z,100807.97
2022-11-06T22:53:43.090Z,100807.97
2022-11-06T22:56:10.157Z,100810.44
2022-11-06T22:58:36.807Z,100805.97
2022-11-06T23:01:03.783Z,100813.53
2022-11-06T23:03:31.161Z,100809.41
2022-11-06T23:05:58.445Z,100819.50
2022-11-06T23:08:26.331Z,100819.13
2022-11-06T23:10:54.456Z,100809.19
2022-11-06T23:13:21.931Z,100820.97
2022-11-06T23:15:48.976Z,100817.44
2022-11-06T23:18:16.034Z,100808.03
2022-11-06T23:20:42.729Z,100819.00
2022-11-06T23:23:09.484Z,100808.44
2022-11-06T23:25:36.339Z,100811.00
2022-11-06T23:28:03.185Z,100808.44
2022-11-06T23:30:33.001Z,100805.56
2022-11-06T23:32:59.932Z,100809.22
2022-11-06T23:35:32.248Z,100803.88
2022-11-06T23:37:59.595Z,100810.94
2022-11-06T23:40:26.682Z,100803.72
2022-11-06T23:42:56.210Z,100802.72
2022-11-06T23:45:41.413Z,100784.50
2022-11-06T23:48:13.424Z,100792.03
2022-11-06T23:50:40.980Z,100804.53
2022-11-06T23:53:07.739Z,100799.81
2022-11-06T23:55:34.425Z,100786.13
2022-11-06T23:58:01.186Z,100795.88
